sensor_id;sensor_type;location;lat;lon;timestamp;pressure;altitude;pressure_sealevel;temperature;humidity
46714;BME280;32445;51.376;10.874;2023-12-29T00:03:10;98968.13;;;8.63;59.65
46714;BME280;32445;51.376;10.874;2023-12-29T00:08:11;98957.78;;;8.63;59.67
46714;BME280;32445;51.376;10.874;2023-12-29T00:13:11;98962.81;;;8.68;59.61
46714;BME280;32445;51.376;10.874;2023-12-29T00:18:12;98946.41;;;8.69;59.68
46714;BME280;32445;51.376;10.874;2023-12-29T00:23:12;98950.56;;;8.74;59.32
46714;BME280;32445;51.376;10.874;2023-12-29T00:28:13;98938.44;;;8.76;59.50
46714;BME280;32445;51.376;10.874;2023-12-29T00:33:13;98942.75;;;8.76;59.48
46714;BME280;32445;51.376;10.874;2023-12-29T00:38:14;98931.50;;;8.78;59.34
46714;BME280;32445;51.376;10.874;2023-12-29T00:43:14;98928.03;;;8.78;59.39
46714;BME280;32445;51.376;10.874;2023-12-29T00:48:14;98891.81;;;8.78;59.02
46714;BME280;32445;51.376;10.874;2023-12-29T00:53:15;98893.59;;;8.76;59.06
46714;BME280;32445;51.376;10.874;2023-12-29T00:58:15;98905.66;;;8.75;58.98
46714;BME280;32445;51.376;10.874;2023-12-29T01:03:21;98885.78;;;8.77;59.13
46714;BME280;32445;51.376;10.874;2023-12-29T01:08:22;98879.78;;;8.77;59.26
46714;BME280;32445;51.376;10.874;2023-12-29T01:13:22;98882.53;;;8.71;59.16
46714;BME280;32445;51.376;10.874;2023-12-29T01:18:23;98887.84;;;8.66;59.34
46714;BME280;32445;51.376;10.874;2023-12-29T01:23:23;98879.28;;;8.64;59.28
46714;BME280;32445;51.376;10.874;2023-12-29T01:28:23;98882.75;;;8.63;59.32
46714;BME280;32445;51.376;10.874;2023-12-29T01:33:25;98874.09;;;8.64;59.50
46714;BME280;32445;51.376;10.874;2023-12-29T01:38:26;98878.59;;;8.57;59.55
46714;BME280;32445;51.376;10.874;2023-12-29T01:43:26;98893.34;;;8.54;59.89
46714;BME280;32445;51.376;10.874;2023-12-29T01:48:27;98867.59;;;8.49;60.45
46714;BME280;32445;51.376;10.874;2023-12-29T01:53:27;98852.91;;;8.51;60.25
46714;BME280;32445;51.376;10.874;2023-12-29T01:58:31;98866.59;;;8.55;60.11
46714;BME280;32445;51.376;10.874;2023-12-29T02:03:32;98858.88;;;8.53;60.45
46714;BME280;32445;51.376;10.874;2023-12-29T02:08:32;98861.53;;;8.50;60.49
46714;BME280;32445;51.376;10.874;2023-12-29T02:13:41;98830.50;;;8.50;60.50
46714;BME280;32445;51.376;10.874;2023-12-29T02:18:50;98824.41;;;8.53;60.44
46714;BME280;32445;51.376;10.874;2023-12-29T02:23:53;98815.91;;;8.47;60.34
46714;BME280;32445;51.376;10.874;2023-12-29T02:28:57;98794.38;;;8.47;60.40
46714;BME280;32445;51.376;10.874;2023-12-29T02:34:00;98799.59;;;8.45;60.52
46714;BME280;32445;51.376;10.874;2023-12-29T02:39:03;98792.69;;;8.46;60.52
46714;BME280;32445;51.376;10.874;2023-12-29T02:44:04;98786.69;;;8.45;60.37
46714;BME280;32445;51.376;10.874;2023-12-29T02:49:04;98799.56;;;8.47;60.60
46714;BME280;32445;51.376;10.874;2023-12-29T02:54:04;98774.66;;;8.43;60.30
46714;BME280;32445;51.376;10.874;2023-12-29T02:59:06;98767.66;;;8.46;60.07
46714;BME280;32445;51.376;10.874;2023-12-29T03:04:09;98775.47;;;8.43;60.04
46714;BME280;32445;51.376;10.874;2023-12-29T03:09:09;98772.91;;;8.43;60.03
46714;BME280;32445;51.376;10.874;2023-12-29T03:14:10;98751.50;;;8.38;60.23
46714;BME280;32445;51.376;10.874;2023-12-29T03:19:10;98778.22;;;8.39;59.95
46714;BME280;32445;51.376;10.874;2023-12-29T03:24:10;98780.84;;;8.37;59.92
46714;BME280;32445;51.376;10.874;2023-12-29T03:29:11;98784.25;;;8.38;59.85
46714;BME280;32445;51.376;10.874;2023-12-29T03:34:11;98778.16;;;8.40;59.87
46714;BME280;32445;51.376;10.874;2023-12-29T03:39:12;98765.13;;;8.43;59.96
46714;BME280;32445;51.376;10.874;2023-12-29T03:44:12;98756.59;;;8.41;59.81
46714;BME280;32445;51.376;10.874;2023-12-29T03:49:12;98765.19;;;8.42;59.86
46714;BME280;32445;51.376;10.874;2023-12-29T03:54:13;98747.97;;;8.41;59.98
46714;BME280;32445;51.376;10.874;2023-12-29T03:59:13;98760.91;;;8.41;59.81
46714;BME280;32445;51.376;10.874;2023-12-29T04:04:16;98762.66;;;8.40;59.95
46714;BME280;32445;51.376;10.874;2023-12-29T04:09:16;98754.88;;;8.40;59.84
46714;BME280;32445;51.376;10.874;2023-12-29T04:14:17;98740.16;;;8.42;59.94
46714;BME280;32445;51.376;10.874;2023-12-29T04:19:17;98732.38;;;8.44;60.09
46714;BME280;32445;51.376;10.874;2023-12-29T04:24:18;98734.97;;;8.42;60.18
46714;BME280;32445;51.376;10.874;2023-12-29T04:29:18;98724.50;;;8.48;59.95
46714;BME280;32445;51.376;10.874;2023-12-29T04:34:22;98732.22;;;8.50;59.87
46714;BME280;32445;51.376;10.874;2023-12-29T04:39:22;98708.13;;;8.48;59.85
46714;BME280;32445;51.376;10.874;2023-12-29T04:44:22;98713.28;;;8.48;60.06
46714;BME280;32445;51.376;10.874;2023-12-29T04:49:23;98712.22;;;8.55;59.70
46714;BME280;32445;51.376;10.874;2023-12-29T04:54:24;98718.16;;;8.59;59.96
46714;BME280;32445;51.376;10.874;2023-12-29T04:59:24;98736.25;;;8.59;59.75
46714;BME280;32445;51.376;10.874;2023-12-29T05:04:24;98730.25;;;8.58;59.82
46714;BME280;32445;51.376;10.874;2023-12-29T05:09:25;98738.72;;;8.63;59.74
46714;BME280;32445;51.376;10.874;2023-12-29T05:14:25;98742.28;;;8.59;59.71
46714;BME280;32445;51.376;10.874;2023-12-29T05:19:26;98719.88;;;8.60;59.55
46714;BME280;32445;51.376;10.874;2023-12-29T05:24:26;98731.00;;;8.62;59.55
46714;BME280;32445;51.376;10.874;2023-12-29T05:29:29;98733.53;;;8.63;59.63
46714;BME280;32445;51.376;10.874;2023-12-29T05:34:32;98748.97;;;8.66;59.42
46714;BME280;32445;51.376;10.874;2023-12-29T05:39:32;98746.19;;;8.73;59.72
46714;BME280;32445;51.376;10.874;2023-12-29T05:44:36;98744.50;;;8.72;59.46
46714;BME280;32445;51.376;10.874;2023-12-29T05:49:36;98753.19;;;8.69;59.56
46714;BME280;32445;51.376;10.874;2023-12-29T05:54:42;98746.25;;;8.71;59.53
46714;BME280;32445;51.376;10.874;2023-12-29T05:59:42;98763.44;;;8.72;59.67
46714;BME280;32445;51.376;10.874;2023-12-29T06:04:43;98771.88;;;8.79;59.66
46714;BME280;32445;51.376;10.874;2023-12-29T06:09:49;98771.09;;;8.77;59.73
46714;BME280;32445;51.376;10.874;2023-12-29T06:14:49;98769.25;;;8.80;59.74
46714;BME280;32445;51.376;10.874;2023-12-29T06:19:57;98775.00;;;8.90;59.67
46714;BME280;32445;51.376;10.874;2023-12-29T06:24:58;98778.38;;;8.92;59.54
46714;BME280;32445;51.376;10.874;2023-12-29T06:29:59;98765.47;;;8.91;59.55
46714;BME280;32445;51.376;10.874;2023-12-29T06:34:59;98767.13;;;8.93;59.56
46714;BME280;32445;51.376;10.874;2023-12-29T06:40:00;98752.34;;;8.97;59.61
46714;BME280;32445;51.376;10.874;2023-12-29T06:45:00;98740.31;;;8.96;59.29
46714;BME280;32445;51.376;10.874;2023-12-29T06:50:01;98735.28;;;8.91;59.47
46714;BME280;32445;51.376;10.874;2023-12-29T06:55:03;98750.75;;;8.93;59.46
46714;BME280;32445;51.376;10.874;2023-12-29T07:00:07;98740.47;;;8.91;59.67
46714;BME280;32445;51.376;10.874;2023-12-29T07:05:07;98743.78;;;8.95;59.54
46714;BME280;32445;51.376;10.874;2023-12-29T07:10:08;98758.53;;;8.93;59.69
46714;BME280;32445;51.376;10.874;2023-12-29T07:15:12;98752.38;;;8.95;59.64
46714;BME280;32445;51.376;10.874;2023-12-29T07:20:14;98766.19;;;8.96;59.78
46714;BME280;32445;51.376;10.874;2023-12-29T07:25:15;98764.22;;;9.03;59.60
46714;BME280;32445;51.376;10.874;2023-12-29T07:30:15;98772.88;;;9.03;59.78
46714;BME280;32445;51.376;10.874;2023-12-29T07:35:16;98754.63;;;9.06;59.74
46714;BME280;32445;51.376;10.874;2023-12-29T07:40:17;98778.78;;;9.07;59.66
46714;BME280;32445;51.376;10.874;2023-12-29T07:45:18;98776.06;;;9.11;59.75
46714;BME280;32445;51.376;10.874;2023-12-29T07:50:18;98783.88;;;9.10;59.78
46714;BME280;32445;51.376;10.874;2023-12-29T07:55:19;98790.59;;;9.15;59.86
46714;BME280;32445;51.376;10.874;2023-12-29T08:00:19;98783.56;;;9.19;59.79
46714;BME280;32445;51.376;10.874;2023-12-29T08:05:19;98807.66;;;9.21;59.66
46714;BME280;32445;51.376;10.874;2023-12-29T08:10:20;98788.75;;;9.19;59.92
46714;BME280;32445;51.376;10.874;2023-12-29T08:15:20;98796.69;;;9.14;59.81
46714;BME280;32445;51.376;10.874;2023-12-29T08:20:21;98796.78;;;9.11;60.13
46714;BME280;32445;51.376;10.874;2023-12-29T08:25:22;98794.97;;;9.13;60.16
46714;BME280;32445;51.376;10.874;2023-12-29T08:30:23;98799.25;;;9.14;60.07
46714;BME280;32445;51.376;10.874;2023-12-29T08:35:23;98824.16;;;9.18;60.13
46714;BME280;32445;51.376;10.874;2023-12-29T08:40:23;98813.72;;;9.22;60.34
46714;BME280;32445;51.376;10.874;2023-12-29T08:45:24;98826.50;;;9.26;60.23
46714;BME280;32445;51.376;10.874;2023-12-29T08:50:24;98808.22;;;9.31;60.13
46714;BME280;32445;51.376;10.874;2023-12-29T08:55:24;98821.03;;;9.35;60.26
46714;BME280;32445;51.376;10.874;2023-12-29T09:00:25;98820.22;;;9.33;60.24
46714;BME280;32445;51.376;10.874;2023-12-29T09:05:25;98822.00;;;9.33;59.95
46714;BME280;32445;51.376;10.874;2023-12-29T09:10:26;98821.88;;;9.36;60.02
46714;BME280;32445;51.376;10.874;2023-12-29T09:15:26;98811.38;;;9.41;60.36
46714;BME280;32445;51.376;10.874;2023-12-29T09:20:27;98808.56;;;9.47;60.05
46714;BME280;32445;51.376;10.874;2023-12-29T09:25:27;98792.91;;;9.51;60.14
46714;BME280;32445;51.376;10.874;2023-12-29T09:30:27;98815.41;;;9.49;60.19
46714;BME280;32445;51.376;10.874;2023-12-29T09:35:28;98819.53;;;9.55;60.06
46714;BME280;32445;51.376;10.874;2023-12-29T09:40:28;98836.84;;;9.55;60.16
46714;BME280;32445;51.376;10.874;2023-12-29T09:45:29;98811.91;;;9.50;60.08
46714;BME280;32445;51.376;10.874;2023-12-29T09:50:30;98816.25;;;9.50;60.10
46714;BME280;32445;51.376;10.874;2023-12-29T09:55:31;98810.16;;;9.51;60.10
46714;BME280;32445;51.376;10.874;2023-12-29T10:00:33;98815.06;;;9.60;60.17
46714;BME280;32445;51.376;10.874;2023-12-29T10:05:34;98823.63;;;9.62;60.20
46714;BME280;32445;51.376;10.874;2023-12-29T10:10:35;98805.47;;;9.62;60.08
46714;BME280;32445;51.376;10.874;2023-12-29T10:21:27;98790.69;;;9.66;59.99
46714;BME280;32445;51.376;10.874;2023-12-29T10:26:28;98801.66;;;9.73;60.12
46714;BME280;32445;51.376;10.874;2023-12-29T10:31:29;98791.34;;;9.71;60.09
46714;BME280;32445;51.376;10.874;2023-12-29T10:36:46;98793.72;;;9.79;60.12
46714;BME280;32445;51.376;10.874;2023-12-29T10:41:46;98785.88;;;9.80;60.15
46714;BME280;32445;51.376;10.874;2023-12-29T10:46:47;98788.34;;;9.83;59.97
46714;BME280;32445;51.376;10.874;2023-12-29T10:51:47;98776.22;;;9.84;60.18
46714;BME280;32445;51.376;10.874;2023-12-29T10:57:00;98773.75;;;9.81;60.41
46714;BME280;32445;51.376;10.874;2023-12-29T11:02:02;98777.19;;;9.81;60.80
46714;BME280;32445;51.376;10.874;2023-12-29T11:07:03;98761.59;;;9.83;60.91
46714;BME280;32445;51.376;10.874;2023-12-29T11:12:04;98755.66;;;9.79;61.18
46714;BME280;32445;51.376;10.874;2023-12-29T11:17:06;98748.53;;;9.86;61.10
46714;BME280;32445;51.376;10.874;2023-12-29T11:22:08;98757.25;;;9.83;61.41
46714;BME280;32445;51.376;10.874;2023-12-29T11:27:10;98755.13;;;9.95;60.82
46714;BME280;32445;51.376;10.874;2023-12-29T11:32:16;98759.50;;;9.93;61.11
46714;BME280;32445;51.376;10.874;2023-12-29T11:42:44;98740.28;;;9.98;61.15
46714;BME280;32445;51.376;10.874;2023-12-29T11:47:53;98743.63;;;10.02;61.10
46714;BME280;32445;51.376;10.874;2023-12-29T11:52:57;98742.69;;;10.04;61.12
46714;BME280;32445;51.376;10.874;2023-12-29T11:58:22;98727.00;;;10.08;61.01
46714;BME280;32445;51.376;10.874;2023-12-29T12:03:28;98727.13;;;10.04;61.20
46714;BME280;32445;51.376;10.874;2023-12-29T12:08:29;98732.31;;;10.04;61.18
46714;BME280;32445;51.376;10.874;2023-12-29T12:13:48;98734.84;;;10.06;61.03
46714;BME280;32445;51.376;10.874;2023-12-29T12:18:48;98720.06;;;10.08;61.34
46714;BME280;32445;51.376;10.874;2023-12-29T12:23:50;98716.34;;;10.15;61.01
46714;BME280;32445;51.376;10.874;2023-12-29T12:28:54;98711.84;;;10.20;60.80
46714;BME280;32445;51.376;10.874;2023-12-29T12:34:00;98705.72;;;10.23;60.95
46714;BME280;32445;51.376;10.874;2023-12-29T12:39:01;98704.91;;;10.21;61.11
46714;BME280;32445;51.376;10.874;2023-12-29T12:44:13;98698.81;;;10.22;61.10
46714;BME280;32445;51.376;10.874;2023-12-29T12:54:25;98694.25;;;10.29;61.27
46714;BME280;32445;51.376;10.874;2023-12-29T12:59:32;98693.50;;;10.25;61.28
46714;BME280;32445;51.376;10.874;2023-12-29T13:04:32;98698.69;;;10.25;61.41
46714;BME280;32445;51.376;10.874;2023-12-29T13:09:33;98690.97;;;10.24;61.48
46714;BME280;32445;51.376;10.874;2023-12-29T13:20:03;98690.84;;;10.27;61.47
46714;BME280;32445;51.376;10.874;2023-12-29T13:25:21;98676.09;;;10.29;61.60
46714;BME280;32445;51.376;10.874;2023-12-29T13:30:33;98686.28;;;10.33;61.27
46714;BME280;32445;51.376;10.874;2023-12-29T13:35:38;98685.38;;;10.36;61.36
46714;BME280;32445;51.376;10.874;2023-12-29T13:40:57;98679.09;;;10.42;61.04
46714;BME280;32445;51.376;10.874;2023-12-29T13:46:00;98673.94;;;10.40;61.25
46714;BME280;32445;51.376;10.874;2023-12-29T13:51:03;98671.13;;;10.46;61.10
46714;BME280;32445;51.376;10.874;2023-12-29T13:56:08;98679.81;;;10.45;61.17
46714;BME280;32445;51.376;10.874;2023-12-29T14:01:10;98673.16;;;10.60;60.73
46714;BME280;32445;51.376;10.874;2023-12-29T14:06:12;98691.16;;;10.65;60.54
46714;BME280;32445;51.376;10.874;2023-12-29T14:11:20;98686.81;;;10.65;60.64
46714;BME280;32445;51.376;10.874;2023-12-29T14:16:21;98693.81;;;10.63;60.78
46714;BME280;32445;51.376;10.874;2023-12-29T14:21:29;98706.88;;;10.62;60.63
46714;BME280;32445;51.376;10.874;2023-12-29T14:26:31;98703.59;;;10.56;60.89
46714;BME280;32445;51.376;10.874;2023-12-29T14:31:39;98698.66;;;10.50;61.01
46714;BME280;32445;51.376;10.874;2023-12-29T14:36:56;98702.03;;;10.52;60.84
46714;BME280;32445;51.376;10.874;2023-12-29T14:42:00;98695.88;;;10.55;61.02
46714;BME280;32445;51.376;10.874;2023-12-29T14:47:00;98685.06;;;10.44;61.39
46714;BME280;32445;51.376;10.874;2023-12-29T14:52:01;98683.31;;;10.44;61.16
46714;BME280;32445;51.376;10.874;2023-12-29T14:57:01;98687.53;;;10.47;61.16
46714;BME280;32445;51.376;10.874;2023-12-29T15:02:02;98673.47;;;10.52;60.94
46714;BME280;32445;51.376;10.874;2023-12-29T15:07:11;98670.56;;;10.60;60.81
46714;BME280;32445;51.376;10.874;2023-12-29T15:12:12;98670.19;;;10.47;60.84
46714;BME280;32445;51.376;10.874;2023-12-29T15:17:12;98665.31;;;10.39;60.92
46714;BME280;32445;51.376;10.874;2023-12-29T15:22:13;98668.19;;;10.32;60.96
46714;BME280;32445;51.376;10.874;2023-12-29T15:27:16;98670.03;;;10.28;61.15
46714;BME280;32445;51.376;10.874;2023-12-29T15:32:16;98658.56;;;10.35;61.12
46714;BME280;32445;51.376;10.874;2023-12-29T15:37:17;98661.22;;;10.34;61.04
46714;BME280;32445;51.376;10.874;2023-12-29T15:42:19;98662.22;;;10.30;60.89
46714;BME280;32445;51.376;10.874;2023-12-29T15:47:20;98669.16;;;10.29;61.14
46714;BME280;32445;51.376;10.874;2023-12-29T15:52:20;98675.28;;;10.27;60.98
46714;BME280;32445;51.376;10.874;2023-12-29T15:57:21;98660.81;;;10.21;61.03
46714;BME280;32445;51.376;10.874;2023-12-29T16:02:21;98661.56;;;10.25;61.09
46714;BME280;32445;51.376;10.874;2023-12-29T16:07:22;98638.50;;;10.17;60.86
46714;BME280;32445;51.376;10.874;2023-12-29T16:12:22;98648.16;;;10.13;60.88
46714;BME280;32445;51.376;10.874;2023-12-29T16:17:22;98666.25;;;10.15;60.95
46714;BME280;32445;51.376;10.874;2023-12-29T16:22:23;98647.19;;;10.16;60.87
46714;BME280;32445;51.376;10.874;2023-12-29T16:27:24;98666.13;;;10.18;60.87
46714;BME280;32445;51.376;10.874;2023-12-29T16:32:26;98649.41;;;10.25;60.53
46714;BME280;32445;51.376;10.874;2023-12-29T16:37:37;98647.50;;;10.30;60.82
46714;BME280;32445;51.376;10.874;2023-12-29T16:42:37;98645.00;;;10.27;60.68
46714;BME280;32445;51.376;10.874;2023-12-29T16:47:38;98643.41;;;10.25;60.66
46714;BME280;32445;51.376;10.874;2023-12-29T16:52:38;98658.09;;;10.24;60.69
46714;BME280;32445;51.376;10.874;2023-12-29T16:57:39;98632.16;;;10.24;60.72
46714;BME280;32445;51.376;10.874;2023-12-29T17:02:39;98637.59;;;10.18;60.68
46714;BME280;32445;51.376;10.874;2023-12-29T17:07:40;98636.69;;;10.19;60.79
46714;BME280;32445;51.376;10.874;2023-12-29T17:12:40;98633.09;;;10.23;60.59
46714;BME280;32445;51.376;10.874;2023-12-29T17:17:40;98636.06;;;10.12;60.83
46714;BME280;32445;51.376;10.874;2023-12-29T17:22:41;98648.97;;;10.14;60.96
46714;BME280;32445;51.376;10.874;2023-12-29T17:27:41;98641.22;;;10.14;61.16
46714;BME280;32445;51.376;10.874;2023-12-29T17:32:43;98637.78;;;10.13;61.11
46714;BME280;32445;51.376;10.874;2023-12-29T17:37:43;98653.41;;;10.12;61.26
46714;BME280;32445;51.376;10.874;2023-12-29T17:42:44;98650.69;;;10.15;61.34
46714;BME280;32445;51.376;10.874;2023-12-29T17:47:44;98642.03;;;10.14;61.27
46714;BME280;32445;51.376;10.874;2023-12-29T17:52:45;98645.75;;;10.09;61.78
46714;BME280;32445;51.376;10.874;2023-12-29T17:57:59;98641.56;;;10.04;62.41
46714;BME280;32445;51.376;10.874;2023-12-29T18:03:08;98643.09;;;10.10;62.13
46714;BME280;32445;51.376;10.874;2023-12-29T18:08:10;98635.31;;;10.10;61.97
46714;BME280;32445;51.376;10.874;2023-12-29T18:13:11;98639.22;;;10.20;61.96
46714;BME280;32445;51.376;10.874;2023-12-29T18:18:11;98627.66;;;10.29;61.60
46714;BME280;32445;51.376;10.874;2023-12-29T18:29:11;98631.72;;;10.13;62.09
46714;BME280;32445;51.376;10.874;2023-12-29T18:34:12;98653.59;;;10.05;62.27
46714;BME280;32445;51.376;10.874;2023-12-29T18:39:12;98649.34;;;10.04;62.13
46714;BME280;32445;51.376;10.874;2023-12-29T18:44:14;98645.25;;;9.99;62.51
46714;BME280;32445;51.376;10.874;2023-12-29T18:49:15;98645.94;;;10.02;62.41
46714;BME280;32445;51.376;10.874;2023-12-29T18:54:15;98647.47;;;10.08;62.21
46714;BME280;32445;51.376;10.874;2023-12-29T18:59:16;98647.81;;;9.99;62.62
46714;BME280;32445;51.376;10.874;2023-12-29T19:04:16;98637.66;;;9.93;62.99
46714;BME280;32445;51.376;10.874;2023-12-29T19:09:17;98638.53;;;9.93;62.92
46714;BME280;32445;51.376;10.874;2023-12-29T19:14:17;98640.19;;;9.94;62.68
46714;BME280;32445;51.376;10.874;2023-12-29T19:19:17;98642.75;;;9.96;62.65
46714;BME280;32445;51.376;10.874;2023-12-29T19:24:18;98630.94;;;9.89;63.26
46714;BME280;32445;51.376;10.874;2023-12-29T19:29:18;98630.06;;;9.88;62.89
46714;BME280;32445;51.376;10.874;2023-12-29T19:34:19;98625.78;;;9.87;63.18
46714;BME280;32445;51.376;10.874;2023-12-29T19:39:20;98619.69;;;9.88;62.95
46714;BME280;32445;51.376;10.874;2023-12-29T19:44:21;98617.66;;;9.96;62.94
46714;BME280;32445;51.376;10.874;2023-12-29T19:49:21;98592.81;;;9.91;63.02
46714;BME280;32445;51.376;10.874;2023-12-29T19:54:21;98617.03;;;9.90;63.16
46714;BME280;32445;51.376;10.874;2023-12-29T19:59:22;98608.50;;;9.87;63.00
46714;BME280;32445;51.376;10.874;2023-12-29T20:04:22;98605.28;;;9.81;63.53
46714;BME280;32445;51.376;10.874;2023-12-29T20:09:22;98604.31;;;9.83;63.14
46714;BME280;32445;51.376;10.874;2023-12-29T20:14:23;98598.97;;;9.88;62.99
46714;BME280;32445;51.376;10.874;2023-12-29T20:19:23;98593.66;;;9.91;62.96
46714;BME280;32445;51.376;10.874;2023-12-29T20:24:23;98572.16;;;9.89;62.85
46714;BME280;32445;51.376;10.874;2023-12-29T20:29:26;98585.88;;;9.91;62.95
46714;BME280;32445;51.376;10.874;2023-12-29T20:34:26;98576.44;;;9.90;62.78
46714;BME280;32445;51.376;10.874;2023-12-29T20:39:27;98571.00;;;9.96;62.73
46714;BME280;32445;51.376;10.874;2023-12-29T20:44:27;98578.84;;;9.95;62.74
46714;BME280;32445;51.376;10.874;2023-12-29T20:49:27;98578.59;;;10.01;62.66
46714;BME280;32445;51.376;10.874;2023-12-29T20:54:28;98573.34;;;10.02;62.51
46714;BME280;32445;51.376;10.874;2023-12-29T20:59:32;98584.69;;;10.00;62.63
46714;BME280;32445;51.376;10.874;2023-12-29T21:04:35;98585.59;;;9.99;62.75
46714;BME280;32445;51.376;10.874;2023-12-29T21:09:36;98576.13;;;9.98;62.78
46714;BME280;32445;51.376;10.874;2023-12-29T21:14:36;98581.25;;;9.99;62.43
46714;BME280;32445;51.376;10.874;2023-12-29T21:19:37;98575.00;;;10.05;62.35
46714;BME280;32445;51.376;10.874;2023-12-29T21:24:38;98567.97;;;10.07;62.29
46714;BME280;32445;51.376;10.874;2023-12-29T21:29:38;98546.34;;;10.08;62.23
46714;BME280;32445;51.376;10.874;2023-12-29T21:34:41;98574.09;;;10.06;62.09
46714;BME280;32445;51.376;10.874;2023-12-29T21:39:42;98595.16;;;9.97;61.83
46714;BME280;32445;51.376;10.874;2023-12-29T21:44:43;98592.06;;;9.89;61.56
46714;BME280;32445;51.376;10.874;2023-12-29T21:49:44;98596.38;;;9.88;61.52
46714;BME280;32445;51.376;10.874;2023-12-29T21:54:44;98597.88;;;9.94;61.45
46714;BME280;32445;51.376;10.874;2023-12-29T21:59:44;98583.34;;;9.90;61.20
46714;BME280;32445;51.376;10.874;2023-12-29T22:04:45;98584.94;;;9.94;61.42
46714;BME280;32445;51.376;10.874;2023-12-29T22:09:45;98580.75;;;9.90;61.24
46714;BME280;32445;51.376;10.874;2023-12-29T22:14:45;98588.41;;;9.93;61.44
46714;BME280;32445;51.376;10.874;2023-12-29T22:19:46;98615.13;;;9.95;60.96
46714;BME280;32445;51.376;10.874;2023-12-29T22:24:46;98632.41;;;9.94;61.24
46714;BME280;32445;51.376;10.874;2023-12-29T22:29:46;98629.81;;;9.94;61.58
46714;BME280;32445;51.376;10.874;2023-12-29T22:34:47;98641.31;;;9.89;61.71
46714;BME280;32445;51.376;10.874;2023-12-29T22:39:47;98650.81;;;9.88;62.02
46714;BME280;32445;51.376;10.874;2023-12-29T22:44:47;98657.19;;;9.79;62.10
46714;BME280;32445;51.376;10.874;2023-12-29T22:49:48;98714.25;;;9.52;62.75
46714;BME280;32445;51.376;10.874;2023-12-29T22:54:48;98669.88;;;9.13;62.96
46714;BME280;32445;51.376;10.874;2023-12-29T22:59:48;98646.22;;;8.97;63.27
46714;BME280;32445;51.376;10.874;2023-12-29T23:04:49;98651.53;;;8.92;63.48
46714;BME280;32445;51.376;10.874;2023-12-29T23:09:51;98642.00;;;8.94;63.25
46714;BME280;32445;51.376;10.874;2023-12-29T23:14:51;98655.88;;;8.92;62.96
46714;BME280;32445;51.376;10.874;2023-12-29T23:19:51;98669.53;;;8.97;62.67
46714;BME280;32445;51.376;10.874;2023-12-29T23:24:52;98657.69;;;8.90;62.95
46714;BME280;32445;51.376;10.874;2023-12-29T23:29:53;98641.00;;;8.98;62.82
46714;BME280;32445;51.376;10.874;2023-12-29T23:34:53;98644.09;;;9.10;62.31
46714;BME280;32445;51.376;10.874;2023-12-29T23:39:53;98647.16;;;9.20;61.99
46714;BME280;32445;51.376;10.874;2023-12-29T23:44:54;98634.69;;;9.31;61.55
46714;BME280;32445;51.376;10.874;2023-12-29T23:49:55;98636.34;;;9.33;61.48
46714;BME280;32445;51.376;10.874;2023-12-29T23:54:55;98639.63;;;9.39;61.25
46714;BME280;32445;51.376;10.874;2023-12-29T23:59:56;98617.84;;;9.44;60.99
